createdAt,value
2023-08-11T00:00:55.802Z,68.32
2023-08-11T00:05:00.439Z,68.68
2023-08-11T00:09:05.438Z,68.71
2023-08-11T00:13:13.823Z,68.81
2023-08-11T00:17:17.850Z,69.05
2023-08-11T00:21:22.629Z,69.00
2023-08-11T00:25:26.214Z,68.63
2023-08-11T00:29:29.389Z,68.27
2023-08-11T00:33:32.766Z,68.07
2023-08-11T00:37:37.490Z,68.96
2023-08-11T00:41:41.098Z,69.00
2023-08-11T00:45:47.749Z,69.28
2023-08-11T00:49:52.020Z,70.86
2023-08-11T00:53:59.723Z,70.69
2023-08-11T00:58:03.448Z,71.14
2023-08-11T01:02:08.172Z,71.47
2023-08-11T01:06:21.629Z,71.26
2023-08-11T01:10:35.980Z,71.27
2023-08-11T01:14:45.830Z,71.84
2023-08-11T01:18:49.761Z,71.98
2023-08-11T01:22:59.493Z,71.91
2023-08-11T01:27:04.409Z,71.28
2023-08-11T01:31:09.992Z,71.00
2023-08-11T01:35:17.373Z,71.91
2023-08-11T01:39:26.127Z,72.05
2023-08-11T01:43:32.510Z,71.79
2023-08-11T01:47:37.736Z,71.90
2023-08-11T01:51:41.274Z,72.22
2023-08-11T01:55:46.075Z,72.56
2023-08-11T01:59:51.291Z,72.94
2023-08-11T02:03:54.741Z,72.87
2023-08-11T02:07:58.126Z,72.67
2023-08-11T02:12:01.807Z,72.86
2023-08-11T02:16:06.823Z,72.20
2023-08-11T02:20:14.879Z,71.70
2023-08-11T02:24:17.980Z,71.31
2023-08-11T02:28:21.854Z,71.56
2023-08-11T02:32:26.908Z,70.79
2023-08-11T02:36:30.550Z,71.29
2023-08-11T02:40:33.775Z,71.38
2023-08-11T02:44:37.313Z,70.68
2023-08-11T02:48:42.224Z,71.18
2023-08-11T02:52:45.605Z,71.46
2023-08-11T02:56:49.302Z,71.62
2023-08-11T03:00:52.950Z,71.88
2023-08-11T03:04:57.943Z,71.42
2023-08-11T03:09:01.110Z,71.35
2023-08-11T03:13:04.498Z,71.23
2023-08-11T03:17:08.339Z,71.35
2023-08-11T03:21:19.756Z,71.40
2023-08-11T03:25:24.075Z,71.76
2023-08-11T03:29:27.615Z,71.58
2023-08-11T03:33:31.194Z,71.72
2023-08-11T03:37:36.208Z,71.62
2023-08-11T03:41:39.858Z,72.15
2023-08-11T03:45:42.974Z,72.26
2023-08-11T03:49:47.609Z,72.40
2023-08-11T03:53:52.304Z,72.24
2023-08-11T03:57:55.737Z,72.51
2023-08-11T04:01:59.068Z,72.52
2023-08-11T04:06:03.526Z,72.38
2023-08-11T04:10:11.984Z,72.51
2023-08-11T04:14:15.683Z,72.39
2023-08-11T04:18:18.896Z,72.53
2023-08-11T04:22:29.189Z,72.28
2023-08-11T04:26:41.878Z,72.40
2023-08-11T04:30:45.595Z,73.25
2023-08-11T04:34:48.922Z,73.07
2023-08-11T04:38:52.830Z,73.21
2023-08-11T04:43:10.931Z,73.56
2023-08-11T04:47:14.378Z,74.08
2023-08-11T04:51:18.525Z,74.97
2023-08-11T04:55:21.998Z,75.20
2023-08-11T04:59:27.028Z,75.21
2023-08-11T05:03:30.969Z,75.09
2023-08-11T05:07:35.993Z,74.94
2023-08-11T05:11:42.267Z,74.97
2023-08-11T05:15:47.399Z,75.55
2023-08-11T05:19:51.629Z,75.58
2023-08-11T05:23:54.744Z,75.19
2023-08-11T05:27:58.049Z,75.32
2023-08-11T05:32:03.240Z,74.91
2023-08-11T05:36:07.490Z,73.34
2023-08-11T05:40:11.614Z,72.31
2023-08-11T05:44:15.097Z,72.35
2023-08-11T05:48:19.764Z,72.53
2023-08-11T05:52:23.736Z,73.04
2023-08-11T05:56:27.270Z,71.86
2023-08-11T06:00:30.780Z,72.05
2023-08-11T06:04:35.603Z,71.56
2023-08-11T06:08:42.153Z,71.13
2023-08-11T06:12:45.669Z,71.39
2023-08-11T06:16:49.166Z,71.43
2023-08-11T06:20:54.449Z,71.49
2023-08-11T06:24:57.792Z,70.92
2023-08-11T06:29:00.820Z,71.53
2023-08-11T06:33:04.468Z,69.82
2023-08-11T06:37:09.940Z,70.07
2023-08-11T06:41:14.242Z,69.02
2023-08-11T06:45:17.710Z,67.83
2023-08-11T06:49:21.412Z,67.08
2023-08-11T06:53:26.273Z,68.33
2023-08-11T06:57:29.926Z,67.04
2023-08-11T07:01:33.576Z,65.80
2023-08-11T07:05:37.161Z,64.69
2023-08-11T07:09:42.094Z,65.30
2023-08-11T07:13:45.753Z,61.75
2023-08-11T07:17:49.367Z,59.61
2023-08-11T07:21:53.347Z,58.31
2023-08-11T07:25:58.035Z,55.27
2023-08-11T07:30:01.401Z,52.29
2023-08-11T07:34:05.252Z,51.05
2023-08-11T07:38:10.673Z,51.25
2023-08-11T07:42:17.361Z,49.23
2023-08-11T07:46:21.097Z,47.74
2023-08-11T07:50:24.333Z,46.39
2023-08-11T07:54:28.947Z,47.22
2023-08-11T07:58:33.753Z,46.50
2023-08-11T08:02:37.068Z,45.83
2023-08-11T08:06:46.600Z,44.51
2023-08-11T08:10:50.064Z,46.14
2023-08-11T08:14:54.752Z,43.44
2023-08-11T08:18:58.694Z,43.70
2023-08-11T08:23:02.551Z,43.49
2023-08-11T08:27:07.171Z,41.53
2023-08-11T08:31:12.299Z,43.67
2023-08-11T08:35:15.739Z,39.00
2023-08-11T08:39:18.981Z,39.45
2023-08-11T08:43:24.026Z,40.72
2023-08-11T08:47:29.284Z,40.46
2023-08-11T08:51:34.027Z,38.97
2023-08-11T08:55:37.422Z,39.15
2023-08-11T08:59:43.696Z,39.52
2023-08-11T09:03:49.418Z,42.45
2023-08-11T09:07:53.637Z,38.68
2023-08-11T09:11:58.647Z,38.77
2023-08-11T09:16:02.801Z,37.85
2023-08-11T09:20:11.249Z,38.66
2023-08-11T09:24:16.224Z,36.86
2023-08-11T09:28:19.249Z,37.24
2023-08-11T09:32:27.256Z,36.14
2023-08-11T09:36:33.783Z,38.15
2023-08-11T09:40:40.037Z,37.36
2023-08-11T09:44:45.253Z,36.70
2023-08-11T09:48:52.865Z,36.23
2023-08-11T09:53:02.075Z,35.06
2023-08-11T09:57:07.802Z,34.72
2023-08-11T10:01:20.680Z,34.78
2023-08-11T10:05:30.828Z,35.07
2023-08-11T10:09:39.306Z,31.15
2023-08-11T10:13:45.308Z,31.88
2023-08-11T10:17:49.797Z,33.36
2023-08-11T10:21:57.570Z,33.31
2023-08-11T10:26:03.335Z,33.68
2023-08-11T10:30:11.298Z,32.78
2023-08-11T10:34:14.958Z,32.84
2023-08-11T10:38:26.618Z,34.78
2023-08-11T10:42:31.497Z,32.87
2023-08-11T10:46:38.587Z,30.55
2023-08-11T10:50:43.024Z,28.99
2023-08-11T10:54:52.645Z,31.24
2023-08-11T10:59:06.665Z,32.44
2023-08-11T11:03:13.413Z,28.52
2023-08-11T11:07:19.613Z,29.45
2023-08-11T11:11:23.174Z,29.65
2023-08-11T11:15:32.481Z,30.95
2023-08-11T11:19:36.380Z,31.53
2023-08-11T11:23:40.137Z,28.91
2023-08-11T11:27:44.506Z,31.73
2023-08-11T11:31:50.596Z,33.28
2023-08-11T11:35:55.052Z,30.83
2023-08-11T11:39:59.792Z,28.26
2023-08-11T11:44:04.871Z,31.20
2023-08-11T11:48:09.784Z,29.54
2023-08-11T11:52:16.110Z,30.47
2023-08-11T11:56:20.875Z,31.15
2023-08-11T12:00:27.014Z,28.94
2023-08-11T12:04:32.216Z,30.62
2023-08-11T12:08:36.569Z,29.53
2023-08-11T12:12:44.544Z,27.62
2023-08-11T12:16:48.173Z,31.18
2023-08-11T12:20:53.503Z,31.53
2023-08-11T12:24:57.113Z,29.11
2023-08-11T12:29:00.253Z,30.92
2023-08-11T12:33:04.033Z,29.57
2023-08-11T12:37:12.274Z,29.38
2023-08-11T12:41:19.015Z,29.08
2023-08-11T12:45:22.617Z,30.07
2023-08-11T12:49:25.834Z,28.03
2023-08-11T12:53:31.179Z,30.95
2023-08-11T12:57:35.003Z,29.07
2023-08-11T13:01:40.399Z,28.88
2023-08-11T13:05:43.743Z,26.75
2023-08-11T13:09:51.238Z,31.01
2023-08-11T13:13:54.639Z,29.01
2023-08-11T13:17:58.352Z,28.70
2023-08-11T13:22:08.277Z,28.04
2023-08-11T13:26:16.124Z,29.87
2023-08-11T13:30:20.817Z,26.92
2023-08-11T13:34:24.886Z,28.95
2023-08-11T13:38:29.198Z,30.02
2023-08-11T13:42:35.221Z,29.39
2023-08-11T13:46:38.224Z,29.09
2023-08-11T13:50:41.902Z,29.32
2023-08-11T13:54:58.922Z,31.36
2023-08-11T13:59:04.912Z,30.50
2023-08-11T14:03:08.513Z,27.51
2023-08-11T14:07:28.210Z,26.72
2023-08-11T14:11:33.063Z,29.00
2023-08-11T14:15:39.586Z,30.05
2023-08-11T14:19:43.143Z,27.68
2023-08-11T14:23:47.521Z,25.69
2023-08-11T14:27:50.884Z,28.32
2023-08-11T14:31:59.071Z,29.00
2023-08-11T14:36:13.517Z,28.31
2023-08-11T14:40:17.973Z,28.51
2023-08-11T14:44:22.719Z,29.75
2023-08-11T14:48:28.382Z,27.15
2023-08-11T14:52:32.584Z,27.16
2023-08-11T14:56:36.142Z,26.58
2023-08-11T15:00:40.004Z,28.66
2023-08-11T15:04:45.369Z,28.23
2023-08-11T15:08:49.325Z,27.83
2023-08-11T15:12:54.064Z,27.78
2023-08-11T15:16:57.714Z,28.36
2023-08-11T15:21:02.463Z,28.97
2023-08-11T15:25:07.199Z,29.01
2023-08-11T15:29:10.486Z,29.01
2023-08-11T15:33:14.278Z,28.79
2023-08-11T15:37:19.207Z,28.96
2023-08-11T15:41:22.892Z,29.43
2023-08-11T15:45:26.013Z,30.03
2023-08-11T15:49:29.970Z,28.44
2023-08-11T15:53:34.602Z,29.53
2023-08-11T15:57:38.577Z,29.34
2023-08-11T16:01:47.704Z,29.44
2023-08-11T16:06:00.117Z,30.29
2023-08-11T16:10:05.817Z,30.38
2023-08-11T16:14:09.366Z,28.97
2023-08-11T16:18:13.702Z,31.31
2023-08-11T16:22:16.745Z,30.20
2023-08-11T16:26:21.891Z,31.28
2023-08-11T16:30:25.683Z,30.79
2023-08-11T16:34:28.980Z,32.25
2023-08-11T16:38:32.530Z,30.79
2023-08-11T16:42:40.054Z,32.39
2023-08-11T16:46:43.174Z,32.84
2023-08-11T16:50:46.954Z,32.06
2023-08-11T16:54:50.385Z,31.57
2023-08-11T16:58:55.064Z,33.67
2023-08-11T17:02:58.591Z,33.23
2023-08-11T17:07:02.162Z,35.19
2023-08-11T17:11:05.574Z,34.12
2023-08-11T17:15:12.002Z,34.48
2023-08-11T17:19:15.152Z,35.60
2023-08-11T21:14:53.862Z,61.23
2023-08-11T21:18:57.095Z,62.79
2023-08-11T21:23:01.275Z,63.21
2023-08-11T21:27:04.505Z,63.31
2023-08-11T21:31:18.305Z,62.64
2023-08-11T21:35:24.041Z,63.18
2023-08-11T21:39:28.668Z,63.70
2023-08-11T21:43:31.932Z,64.36
2023-08-11T21:47:37.293Z,63.51
2023-08-11T21:51:40.879Z,63.69
2023-08-11T21:55:45.001Z,63.85
2023-08-11T21:59:48.342Z,64.30
2023-08-11T22:03:52.975Z,64.38
2023-08-11T22:07:56.340Z,64.28
2023-08-11T22:12:01.582Z,64.62
2023-08-11T22:16:05.160Z,65.72
2023-08-11T22:20:13.041Z,64.76
2023-08-11T22:24:23.992Z,66.40
2023-08-11T22:28:34.459Z,66.65
2023-08-11T22:32:37.979Z,66.69
2023-08-11T22:36:43.150Z,66.73
2023-08-11T22:40:46.948Z,67.26
2023-08-11T22:44:51.694Z,67.34
2023-08-11T22:48:55.331Z,67.26
2023-08-11T22:53:00.295Z,66.88
2023-08-11T22:57:03.475Z,67.40
2023-08-11T23:01:06.798Z,67.89
2023-08-11T23:05:10.729Z,68.67
2023-08-11T23:09:15.454Z,68.09
2023-08-11T23:13:19.396Z,68.55
2023-08-11T23:17:23.618Z,68.43
2023-08-11T23:21:27.464Z,69.04
2023-08-11T23:25:34.362Z,69.08
2023-08-11T23:29:37.980Z,69.93
2023-08-11T23:33:41.086Z,69.91
2023-08-11T23:37:44.983Z,70.22
2023-08-11T23:41:50.223Z,70.02
2023-08-11T23:45:53.978Z,70.00
2023-08-11T23:49:58.061Z,70.24
2023-08-11T23:54:01.847Z,70.14
2023-08-11T23:58:06.547Z,69.60
